UAE883 RPVM-RPLC
Flight info
| Callsign | UAE883 |
|---|---|
| Flight time | N/A |
| Altitude | 34000 |
| Route | MULOP4P/04R MOLOC4P MOLOC W11 MIA W16 OLIVA OLIVA3P |
| Aircraft | B77W/H-SDE1E2E3FGHIJ2J3J4J5M1RWXY/LB1D1 |
Departure
| Time | 2026-04-28 15:55 |
|---|---|
| Airport | Mactan Cebu International Airport (RPVM) |
Arrival
| Time | N/A |
|---|---|
| Airport | Clark International Airport / Clark Air Base (RPLC) |
| Time | Latitude | Longitude | Altitude | Speed | Heading |
|---|---|---|---|---|---|
| 2026-04-28 15:23 | 10.31279 | 123.97763 | 38 ft | 0 kts | 266° |
| 2026-04-28 15:39 | 10.31278 | 123.97765 | 39 ft | 1 kts | 267° |
| 2026-04-28 15:40 | 10.31281 | 123.97779 | 40 ft | 2 kts | 261° |
| 2026-04-28 15:40 | 10.31283 | 123.97794 | 42 ft | 2 kts | 259° |
| 2026-04-28 15:40 | 10.31287 | 123.97810 | 43 ft | 2 kts | 255° |
| 2026-04-28 15:40 | 10.31291 | 123.97823 | 42 ft | 2 kts | 250° |
| 2026-04-28 15:41 | 10.31297 | 123.97838 | 41 ft | 2 kts | 247° |
| 2026-04-28 15:41 | 10.31303 | 123.97852 | 40 ft | 2 kts | 242° |
| 2026-04-28 15:41 | 10.31310 | 123.97865 | 39 ft | 2 kts | 240° |
| 2026-04-28 15:41 | 10.31318 | 123.97878 | 38 ft | 1 kts | 234° |
| 2026-04-28 15:42 | 10.31330 | 123.97887 | 38 ft | 2 kts | 218° |
| 2026-04-28 15:42 | 10.31343 | 123.97894 | 38 ft | 2 kts | 207° |
| 2026-04-28 15:42 | 10.31357 | 123.97900 | 38 ft | 2 kts | 203° |
| 2026-04-28 15:42 | 10.31366 | 123.97903 | 38 ft | 1 kts | 201° |
| 2026-04-28 15:46 | 10.31355 | 123.97900 | 38 ft | 4 kts | 187° |
| 2026-04-28 15:46 | 10.31314 | 123.97907 | 38 ft | 7 kts | 120° |
| 2026-04-28 15:46 | 10.31280 | 123.97938 | 38 ft | 5 kts | 111° |
| 2026-04-28 15:46 | 10.31248 | 123.97972 | 38 ft | 5 kts | 162° |
| 2026-04-28 15:47 | 10.31211 | 123.97976 | 38 ft | 5 kts | 200° |
| 2026-04-28 15:47 | 10.31181 | 123.97958 | 38 ft | 6 kts | 225° |
| 2026-04-28 15:47 | 10.31117 | 123.97893 | 38 ft | 19 kts | 226° |
| 2026-04-28 15:47 | 10.31001 | 123.97774 | 38 ft | 24 kts | 214° |
| 2026-04-28 15:48 | 10.30891 | 123.97665 | 38 ft | 21 kts | 223° |
| 2026-04-28 15:48 | 10.30785 | 123.97562 | 38 ft | 20 kts | 227° |
| 2026-04-28 15:48 | 10.30687 | 123.97463 | 38 ft | 19 kts | 226° |
| 2026-04-28 15:48 | 10.30594 | 123.97372 | 38 ft | 18 kts | 223° |
| 2026-04-28 15:49 | 10.30503 | 123.97281 | 38 ft | 17 kts | 226° |
| 2026-04-28 15:49 | 10.30412 | 123.97187 | 38 ft | 20 kts | 223° |
| 2026-04-28 15:49 | 10.30323 | 123.97095 | 38 ft | 17 kts | 224° |
| 2026-04-28 15:49 | 10.30229 | 123.96999 | 38 ft | 20 kts | 220° |
| 2026-04-28 15:50 | 10.30128 | 123.96904 | 38 ft | 19 kts | 225° |
| 2026-04-28 15:50 | 10.30025 | 123.96802 | 38 ft | 21 kts | 225° |
| 2026-04-28 15:50 | 10.29918 | 123.96709 | 38 ft | 14 kts | 156° |
| 2026-04-28 15:50 | 10.29890 | 123.96708 | 38 ft | 5 kts | 134° |
| 2026-04-28 15:51 | 10.29830 | 123.96762 | 38 ft | 18 kts | 137° |
| 2026-04-28 15:51 | 10.29774 | 123.96814 | 38 ft | 0 kts | 124° |
| 2026-04-28 15:53 | 10.29758 | 123.96835 | 38 ft | 6 kts | 122° |
| 2026-04-28 15:54 | 10.29732 | 123.96883 | 38 ft | 8 kts | 69° |
| 2026-04-28 15:54 | 10.29746 | 123.96931 | 38 ft | 5 kts | 10° |
| 2026-04-28 15:54 | 10.29784 | 123.96961 | 38 ft | 0 kts | 51° |
| 2026-04-28 15:54 | 10.29787 | 123.96966 | 38 ft | 6 kts | 52° |
| 2026-04-28 15:55 | 10.30003 | 123.97182 | 38 ft | 87 kts | 44° |
| 2026-04-28 15:55 | 10.30634 | 123.97806 | 62 ft | 162 kts | 43° |
| 2026-04-28 15:55 | 10.31474 | 123.98624 | 933 ft | 171 kts | 44° |
| 2026-04-28 15:55 | 10.32201 | 123.99329 | 2006 ft | 152 kts | 48° |
| 2026-04-28 15:56 | 10.33039 | 124.00153 | 2270 ft | 180 kts | 47° |
| 2026-04-28 15:56 | 10.33986 | 124.00815 | 2540 ft | 206 kts | 24° |
| 2026-04-28 15:56 | 10.35542 | 124.00893 | 2844 ft | 242 kts | 350° |
| 2026-04-28 15:56 | 10.37127 | 124.00373 | 3511 ft | 251 kts | 345° |
| 2026-04-28 15:57 | 10.38795 | 123.99862 | 4289 ft | 254 kts | 347° |
| 2026-04-28 15:57 | 10.40508 | 123.99358 | 5078 ft | 257 kts | 347° |
| 2026-04-28 15:57 | 10.42201 | 123.98871 | 5837 ft | 260 kts | 347° |
| 2026-04-28 15:57 | 10.43970 | 123.98370 | 6600 ft | 264 kts | 347° |
| 2026-04-28 15:58 | 10.45746 | 123.97870 | 7381 ft | 266 kts | 347° |
| 2026-04-28 15:58 | 10.47538 | 123.97369 | 8133 ft | 269 kts | 347° |
| 2026-04-28 15:58 | 10.49305 | 123.96874 | 8856 ft | 272 kts | 347° |
| 2026-04-28 15:58 | 10.51139 | 123.96362 | 9601 ft | 275 kts | 346° |
| 2026-04-28 15:59 | 10.53013 | 123.95839 | 10376 ft | 277 kts | 347° |
| 2026-04-28 15:59 | 10.54221 | 123.95502 | 10863 ft | 279 kts | 347° |
| 2026-04-28 15:59 | 10.56786 | 123.94787 | 11862 ft | 283 kts | 346° |
| 2026-04-28 15:59 | 10.58651 | 123.94267 | 12546 ft | 285 kts | 346° |
| 2026-04-28 16:00 | 10.60497 | 123.93752 | 13202 ft | 288 kts | 346° |
| 2026-04-28 16:00 | 10.62451 | 123.93207 | 13924 ft | 290 kts | 346° |
| 2026-04-28 16:00 | 10.64368 | 123.92577 | 14650 ft | 293 kts | 336° |
| 2026-04-28 16:00 | 10.65979 | 123.91293 | 15332 ft | 299 kts | 315° |
| 2026-04-28 16:01 | 10.67357 | 123.89713 | 15981 ft | 302 kts | 314° |
| 2026-04-28 16:01 | 10.68752 | 123.88113 | 16613 ft | 306 kts | 314° |
| 2026-04-28 16:01 | 10.70171 | 123.86462 | 17272 ft | 308 kts | 314° |
| 2026-04-28 16:01 | 10.71527 | 123.84875 | 17877 ft | 312 kts | 314° |
| 2026-04-28 16:02 | 10.72943 | 123.83212 | 18437 ft | 317 kts | 314° |
| 2026-04-28 16:02 | 10.74407 | 123.81489 | 19046 ft | 320 kts | 314° |
| 2026-04-28 16:02 | 10.75827 | 123.79814 | 19614 ft | 323 kts | 313° |
| 2026-04-28 16:02 | 10.77241 | 123.78146 | 20141 ft | 327 kts | 313° |
| 2026-04-28 16:03 | 10.78727 | 123.76391 | 20671 ft | 331 kts | 313° |
| 2026-04-28 16:03 | 10.80218 | 123.74631 | 21171 ft | 334 kts | 313° |
| 2026-04-28 16:03 | 10.81759 | 123.72810 | 21674 ft | 338 kts | 313° |
| 2026-04-28 16:03 | 10.83273 | 123.71021 | 22128 ft | 342 kts | 313° |
| 2026-04-28 16:04 | 10.84830 | 123.69180 | 22639 ft | 345 kts | 313° |
| 2026-04-28 16:04 | 10.86245 | 123.67508 | 23093 ft | 348 kts | 313° |
| 2026-04-28 16:04 | 10.87711 | 123.65775 | 23549 ft | 350 kts | 312° |
| 2026-04-28 16:04 | 10.88777 | 123.64514 | 23888 ft | 351 kts | 312° |
| 2026-04-28 16:05 | 10.90851 | 123.62060 | 24511 ft | 354 kts | 312° |
| 2026-04-28 16:05 | 10.92413 | 123.60213 | 24956 ft | 356 kts | 312° |
| 2026-04-28 16:05 | 10.93990 | 123.58347 | 25373 ft | 358 kts | 312° |
| 2026-04-28 16:05 | 10.95564 | 123.56485 | 25795 ft | 360 kts | 312° |
| 2026-04-28 16:06 | 10.97208 | 123.54539 | 26209 ft | 362 kts | 312° |
| 2026-04-28 16:06 | 10.98852 | 123.52593 | 26578 ft | 364 kts | 312° |
| 2026-04-28 16:06 | 11.00621 | 123.50742 | 26971 ft | 364 kts | 322° |
| 2026-04-28 16:06 | 11.02658 | 123.49262 | 27353 ft | 365 kts | 326° |
| 2026-04-28 16:07 | 11.04723 | 123.47805 | 27722 ft | 366 kts | 326° |
| 2026-04-28 16:07 | 11.06831 | 123.46321 | 28039 ft | 369 kts | 326° |
| 2026-04-28 16:07 | 11.10951 | 123.43434 | 28714 ft | 372 kts | 326° |
| 2026-04-28 16:08 | 11.13002 | 123.41999 | 29046 ft | 374 kts | 326° |
| 2026-04-28 16:08 | 11.15108 | 123.40527 | 29313 ft | 377 kts | 326° |
| 2026-04-28 16:08 | 11.17272 | 123.39014 | 29674 ft | 377 kts | 326° |
| 2026-04-28 16:09 | 11.21566 | 123.36011 | 30265 ft | 381 kts | 326° |
| 2026-04-28 16:09 | 11.23583 | 123.34602 | 30612 ft | 380 kts | 325° |
| 2026-04-28 16:09 | 11.25792 | 123.33057 | 30882 ft | 383 kts | 325° |
| 2026-04-28 16:10 | 11.30195 | 123.29976 | 31374 ft | 387 kts | 326° |
| 2026-04-28 16:10 | 11.32425 | 123.28416 | 31693 ft | 388 kts | 325° |
| 2026-04-28 16:10 | 11.36907 | 123.25279 | 32169 ft | 393 kts | 325° |
| 2026-04-28 16:11 | 11.41104 | 123.22340 | 32718 ft | 394 kts | 325° |
| 2026-04-28 16:11 | 11.45604 | 123.19188 | 33270 ft | 397 kts | 325° |
| 2026-04-28 16:12 | 11.50072 | 123.16057 | 33799 ft | 399 kts | 324° |
| 2026-04-28 16:12 | 11.52266 | 123.14520 | 33839 ft | 394 kts | 324° |
| 2026-04-28 16:13 | 11.58950 | 123.09831 | 33848 ft | 402 kts | 325° |
| 2026-04-28 16:14 | 11.68175 | 123.03357 | 33841 ft | 398 kts | 325° |
| 2026-04-28 16:15 | 11.77388 | 122.96888 | 33835 ft | 399 kts | 324° |
| 2026-04-28 16:15 | 11.81975 | 122.93664 | 33858 ft | 401 kts | 324° |
| 2026-04-28 16:16 | 11.88875 | 122.88812 | 33859 ft | 400 kts | 324° |
| 2026-04-28 16:17 | 11.95752 | 122.83974 | 33866 ft | 397 kts | 325° |
| 2026-04-28 16:17 | 12.00314 | 122.80763 | 33861 ft | 399 kts | 324° |
| 2026-04-28 16:18 | 12.04903 | 122.77531 | 33861 ft | 399 kts | 324° |
| 2026-04-28 16:18 | 12.09484 | 122.74305 | 33865 ft | 397 kts | 324° |
| 2026-04-28 16:19 | 12.13952 | 122.71155 | 33863 ft | 397 kts | 324° |
| 2026-04-28 16:19 | 12.18533 | 122.67923 | 33863 ft | 401 kts | 324° |
| 2026-04-28 16:20 | 12.23180 | 122.64646 | 33862 ft | 402 kts | 324° |
| 2026-04-28 16:20 | 12.27735 | 122.61431 | 33864 ft | 395 kts | 324° |
| 2026-04-28 16:21 | 12.32263 | 122.58233 | 33857 ft | 393 kts | 324° |
| 2026-04-28 16:21 | 12.36443 | 122.55282 | 33867 ft | 397 kts | 324° |
| 2026-04-28 16:22 | 12.41053 | 122.52025 | 33863 ft | 397 kts | 324° |
| 2026-04-28 16:22 | 12.45610 | 122.48803 | 33864 ft | 400 kts | 324° |
| 2026-04-28 16:23 | 12.50189 | 122.45566 | 33856 ft | 394 kts | 323° |
| 2026-04-28 16:23 | 12.54693 | 122.42377 | 33864 ft | 391 kts | 323° |
| 2026-04-28 16:24 | 12.59164 | 122.39213 | 33856 ft | 391 kts | 323° |
| 2026-04-28 16:24 | 12.63584 | 122.36081 | 33854 ft | 393 kts | 324° |
| 2026-04-28 16:25 | 12.67888 | 122.33032 | 33863 ft | 396 kts | 323° |
| 2026-04-28 16:25 | 12.72405 | 122.29832 | 33850 ft | 391 kts | 323° |
| 2026-04-28 16:26 | 12.76857 | 122.26674 | 33856 ft | 392 kts | 323° |
| 2026-04-28 16:26 | 12.81388 | 122.23460 | 33852 ft | 392 kts | 323° |
| 2026-04-28 16:27 | 12.85887 | 122.20265 | 33856 ft | 393 kts | 323° |
| 2026-04-28 16:28 | 12.92614 | 122.15490 | 33857 ft | 390 kts | 323° |
| 2026-04-28 16:28 | 12.97103 | 122.12299 | 33863 ft | 391 kts | 323° |
| 2026-04-28 16:29 | 13.03829 | 122.07519 | 33873 ft | 390 kts | 323° |
| 2026-04-28 16:30 | 13.10554 | 122.02734 | 33896 ft | 391 kts | 323° |
| 2026-04-28 16:30 | 13.14648 | 121.99820 | 33910 ft | 390 kts | 323° |
| 2026-04-28 16:31 | 13.18992 | 121.96726 | 33922 ft | 392 kts | 322° |
| 2026-04-28 16:31 | 13.23502 | 121.93514 | 33932 ft | 392 kts | 322° |
| 2026-04-28 16:32 | 13.27974 | 121.90327 | 33916 ft | 390 kts | 322° |
| 2026-04-28 16:32 | 13.34693 | 121.85535 | 33901 ft | 391 kts | 322° |
| 2026-04-28 16:33 | 13.37638 | 121.83433 | 33886 ft | 392 kts | 323° |
| 2026-04-28 16:33 | 13.43641 | 121.79148 | 33877 ft | 390 kts | 322° |
| 2026-04-28 16:34 | 13.45853 | 121.77569 | 34042 ft | 386 kts | 322° |
| 2026-04-28 16:34 | 13.48072 | 121.75983 | 33841 ft | 392 kts | 322° |
| 2026-04-28 16:34 | 13.52480 | 121.72834 | 33872 ft | 391 kts | 322° |
| 2026-04-28 16:35 | 13.56762 | 121.69772 | 33876 ft | 392 kts | 322° |
| 2026-04-28 16:35 | 13.61264 | 121.66554 | 33870 ft | 391 kts | 322° |
| 2026-04-28 16:36 | 13.65760 | 121.63336 | 33876 ft | 391 kts | 322° |
| 2026-04-28 16:36 | 13.70263 | 121.60113 | 33875 ft | 391 kts | 322° |
| 2026-04-28 16:37 | 13.72534 | 121.58485 | 33772 ft | 393 kts | 322° |
| 2026-04-28 16:37 | 13.74776 | 121.56881 | 33890 ft | 389 kts | 322° |
| 2026-04-28 16:38 | 13.81360 | 121.52161 | 33889 ft | 392 kts | 322° |
| 2026-04-28 16:38 | 13.85814 | 121.48968 | 33908 ft | 392 kts | 322° |
| 2026-04-28 16:39 | 13.90328 | 121.45729 | 33912 ft | 391 kts | 322° |
| 2026-04-28 16:39 | 13.94810 | 121.42512 | 33933 ft | 392 kts | 322° |
| 2026-04-28 16:40 | 13.99312 | 121.39280 | 33941 ft | 391 kts | 322° |
| 2026-04-28 16:40 | 14.03788 | 121.36063 | 33742 ft | 396 kts | 322° |
| 2026-04-28 16:40 | 14.06021 | 121.34457 | 33245 ft | 400 kts | 322° |
| 2026-04-28 16:41 | 14.08298 | 121.32821 | 32657 ft | 398 kts | 322° |
| 2026-04-28 16:41 | 14.10387 | 121.31320 | 32103 ft | 392 kts | 322° |
| 2026-04-28 16:41 | 14.12672 | 121.29676 | 31487 ft | 379 kts | 322° |
| 2026-04-28 16:41 | 14.14339 | 121.28477 | 31070 ft | 372 kts | 322° |
| 2026-04-28 16:42 | 14.16349 | 121.27029 | 30569 ft | 366 kts | 323° |
| 2026-04-28 16:42 | 14.18444 | 121.25522 | 30045 ft | 362 kts | 323° |
| 2026-04-28 16:42 | 14.20348 | 121.24149 | 29559 ft | 361 kts | 323° |
| 2026-04-28 16:42 | 14.22433 | 121.22649 | 29021 ft | 361 kts | 323° |
| 2026-04-28 16:43 | 14.24467 | 121.21182 | 28531 ft | 358 kts | 323° |
| 2026-04-28 16:43 | 14.26510 | 121.19712 | 28013 ft | 357 kts | 323° |
| 2026-04-28 16:43 | 14.28557 | 121.18237 | 27496 ft | 354 kts | 323° |
| 2026-04-28 16:43 | 14.30570 | 121.16786 | 26980 ft | 351 kts | 323° |
| 2026-04-28 16:44 | 14.32476 | 121.15412 | 26494 ft | 349 kts | 323° |
| 2026-04-28 16:44 | 14.34442 | 121.13995 | 25992 ft | 348 kts | 323° |
| 2026-04-28 16:44 | 14.36418 | 121.12569 | 25487 ft | 346 kts | 323° |
| 2026-04-28 16:44 | 14.38393 | 121.11144 | 24985 ft | 343 kts | 324° |
| 2026-04-28 16:45 | 14.40349 | 121.09733 | 24486 ft | 341 kts | 324° |
| 2026-04-28 16:45 | 14.42275 | 121.08343 | 23989 ft | 339 kts | 324° |
| 2026-04-28 16:45 | 14.44232 | 121.06930 | 23481 ft | 338 kts | 324° |
| 2026-04-28 16:45 | 14.46019 | 121.05640 | 23014 ft | 337 kts | 324° |
| 2026-04-28 16:46 | 14.47942 | 121.04252 | 22520 ft | 335 kts | 324° |
| 2026-04-28 16:46 | 14.49802 | 121.02908 | 22046 ft | 334 kts | 324° |
| 2026-04-28 16:46 | 14.51730 | 121.01548 | 21569 ft | 332 kts | 326° |
| 2026-04-28 16:46 | 14.53654 | 121.00253 | 21102 ft | 329 kts | 326° |
| 2026-04-28 16:47 | 14.55565 | 120.98959 | 20632 ft | 325 kts | 326° |
| 2026-04-28 16:47 | 14.57471 | 120.97671 | 20160 ft | 320 kts | 326° |
| 2026-04-28 16:47 | 14.59248 | 120.96467 | 19719 ft | 318 kts | 326° |
| 2026-04-28 16:47 | 14.61113 | 120.95203 | 19255 ft | 317 kts | 326° |
| 2026-04-28 16:48 | 14.62973 | 120.93944 | 18802 ft | 313 kts | 326° |
| 2026-04-28 16:48 | 14.64768 | 120.92727 | 18334 ft | 310 kts | 326° |
| 2026-04-28 16:48 | 14.66573 | 120.91503 | 17875 ft | 309 kts | 327° |
| 2026-04-28 16:48 | 14.68365 | 120.90289 | 17432 ft | 307 kts | 327° |
| 2026-04-28 16:49 | 14.70150 | 120.89078 | 16973 ft | 303 kts | 327° |
| 2026-04-28 16:49 | 14.71833 | 120.87937 | 16545 ft | 303 kts | 327° |
| 2026-04-28 16:49 | 14.73547 | 120.86774 | 16186 ft | 301 kts | 327° |
| 2026-04-28 16:49 | 14.75159 | 120.85682 | 15803 ft | 299 kts | 326° |
| 2026-04-28 16:50 | 14.75909 | 120.85173 | 15590 ft | 298 kts | 326° |